sensor_id;sensor_type;location;lat;lon;timestamp;P1;durP1;ratioP1;P2;durP2;ratioP2
78561;SDS011;68963;52.138;5.446;2024-03-23T00:54:20;20.30;;;7.93;;
78561;SDS011;68963;52.138;5.446;2024-03-23T00:56:45;18.65;;;7.25;;
78561;SDS011;68963;52.138;5.446;2024-03-23T00:59:11;20.25;;;6.93;;
78561;SDS011;68963;52.138;5.446;2024-03-23T01:01:37;21.73;;;7.13;;
78561;SDS011;68963;52.138;5.446;2024-03-23T01:04:02;25.58;;;7.97;;
78561;SDS011;68963;52.138;5.446;2024-03-23T01:06:28;23.13;;;7.82;;
78561;SDS011;68963;52.138;5.446;2024-03-23T01:08:53;27.23;;;7.72;;
78561;SDS011;68963;52.138;5.446;2024-03-23T01:11:19;23.00;;;7.38;;
78561;SDS011;68963;52.138;5.446;2024-03-23T01:13:44;21.65;;;7.47;;
78561;SDS011;68963;52.138;5.446;2024-03-23T01:16:10;24.95;;;7.13;;
78561;SDS011;68963;52.138;5.446;2024-03-23T01:18:36;27.70;;;7.20;;
78561;SDS011;68963;52.138;5.446;2024-03-23T01:21:01;23.42;;;7.45;;
78561;SDS011;68963;52.138;5.446;2024-03-23T01:23:27;22.95;;;7.15;;
78561;SDS011;68963;52.138;5.446;2024-03-23T01:25:53;23.13;;;7.32;;
78561;SDS011;68963;52.138;5.446;2024-03-23T01:28:20;18.95;;;6.97;;
78561;SDS011;68963;52.138;5.446;2024-03-23T01:30:46;18.35;;;6.70;;
78561;SDS011;68963;52.138;5.446;2024-03-23T01:33:12;22.13;;;7.50;;
78561;SDS011;68963;52.138;5.446;2024-03-23T01:35:38;22.83;;;6.82;;
78561;SDS011;68963;52.138;5.446;2024-03-23T01:38:03;22.10;;;6.70;;
78561;SDS011;68963;52.138;5.446;2024-03-23T01:40:29;24.20;;;7.40;;
78561;SDS011;68963;52.138;5.446;2024-03-23T01:42:58;23.50;;;7.50;;
78561;SDS011;68963;52.138;5.446;2024-03-23T01:45:27;24.80;;;7.30;;
78561;SDS011;68963;52.138;5.446;2024-03-23T01:47:52;23.75;;;6.95;;
78561;SDS011;68963;52.138;5.446;2024-03-23T01:50:18;21.58;;;7.88;;
78561;SDS011;68963;52.138;5.446;2024-03-23T01:52:46;22.50;;;7.25;;
78561;SDS011;68963;52.138;5.446;2024-03-23T01:55:12;21.88;;;7.38;;
78561;SDS011;68963;52.138;5.446;2024-03-23T01:57:37;19.52;;;6.68;;
78561;SDS011;68963;52.138;5.446;2024-03-23T02:00:03;21.67;;;7.57;;
78561;SDS011;68963;52.138;5.446;2024-03-23T02:02:30;20.70;;;6.97;;
78561;SDS011;68963;52.138;5.446;2024-03-23T02:04:55;20.05;;;7.22;;
78561;SDS011;68963;52.138;5.446;2024-03-23T02:07:21;20.17;;;7.38;;
78561;SDS011;68963;52.138;5.446;2024-03-23T02:09:47;21.50;;;7.10;;
78561;SDS011;68963;52.138;5.446;2024-03-23T02:12:12;23.42;;;7.93;;
78561;SDS011;68963;52.138;5.446;2024-03-23T02:14:38;23.25;;;7.57;;
78561;SDS011;68963;52.138;5.446;2024-03-23T02:17:03;25.45;;;7.85;;
78561;SDS011;68963;52.138;5.446;2024-03-23T02:19:29;19.00;;;7.43;;
78561;SDS011;68963;52.138;5.446;2024-03-23T02:21:55;22.10;;;7.35;;
78561;SDS011;68963;52.138;5.446;2024-03-23T02:24:20;21.42;;;7.35;;
78561;SDS011;68963;52.138;5.446;2024-03-23T02:26:46;22.63;;;7.65;;
78561;SDS011;68963;52.138;5.446;2024-03-23T02:29:13;24.42;;;7.47;;
78561;SDS011;68963;52.138;5.446;2024-03-23T02:31:39;25.88;;;7.85;;
78561;SDS011;68963;52.138;5.446;2024-03-23T02:34:05;23.77;;;7.55;;
78561;SDS011;68963;52.138;5.446;2024-03-23T02:36:30;25.33;;;7.63;;
78561;SDS011;68963;52.138;5.446;2024-03-23T02:38:56;23.98;;;7.57;;
78561;SDS011;68963;52.138;5.446;2024-03-23T02:41:22;20.80;;;6.65;;
78561;SDS011;68963;52.138;5.446;2024-03-23T02:43:49;20.17;;;6.78;;
78561;SDS011;68963;52.138;5.446;2024-03-23T02:46:15;19.13;;;6.53;;
78561;SDS011;68963;52.138;5.446;2024-03-23T02:48:41;21.40;;;6.88;;
78561;SDS011;68963;52.138;5.446;2024-03-23T02:51:06;21.85;;;6.60;;
78561;SDS011;68963;52.138;5.446;2024-03-23T02:53:32;21.23;;;6.20;;
78561;SDS011;68963;52.138;5.446;2024-03-23T02:55:58;21.67;;;6.00;;
78561;SDS011;68963;52.138;5.446;2024-03-23T02:58:24;18.40;;;5.60;;
78561;SDS011;68963;52.138;5.446;2024-03-23T03:00:49;17.33;;;5.53;;
78561;SDS011;68963;52.138;5.446;2024-03-23T03:03:15;15.55;;;5.28;;
78561;SDS011;68963;52.138;5.446;2024-03-23T03:05:41;15.38;;;4.78;;
78561;SDS011;68963;52.138;5.446;2024-03-23T03:08:06;17.13;;;5.57;;
78561;SDS011;68963;52.138;5.446;2024-03-23T03:10:32;18.52;;;5.22;;
78561;SDS011;68963;52.138;5.446;2024-03-23T03:13:00;22.85;;;5.25;;
78561;SDS011;68963;52.138;5.446;2024-03-23T03:15:26;16.63;;;5.20;;
78561;SDS011;68963;52.138;5.446;2024-03-23T03:17:51;15.85;;;5.07;;
78561;SDS011;68963;52.138;5.446;2024-03-23T03:20:17;16.15;;;4.68;;
78561;SDS011;68963;52.138;5.446;2024-03-23T03:22:43;16.70;;;5.03;;
78561;SDS011;68963;52.138;5.446;2024-03-23T03:25:09;14.60;;;5.22;;
78561;SDS011;68963;52.138;5.446;2024-03-23T03:27:34;21.23;;;5.60;;
78561;SDS011;68963;52.138;5.446;2024-03-23T03:30:00;17.83;;;5.15;;
78561;SDS011;68963;52.138;5.446;2024-03-23T03:32:31;12.55;;;4.80;;
78561;SDS011;68963;52.138;5.446;2024-03-23T03:34:57;22.50;;;5.30;;
78561;SDS011;68963;52.138;5.446;2024-03-23T03:37:23;16.50;;;4.65;;
78561;SDS011;68963;52.138;5.446;2024-03-23T03:39:49;17.73;;;4.63;;
78561;SDS011;68963;52.138;5.446;2024-03-23T03:42:14;20.08;;;5.57;;
78561;SDS011;68963;52.138;5.446;2024-03-23T03:44:40;14.80;;;4.70;;
78561;SDS011;68963;52.138;5.446;2024-03-23T03:47:06;17.05;;;4.88;;
78561;SDS011;68963;52.138;5.446;2024-03-23T03:49:31;15.30;;;4.80;;
78561;SDS011;68963;52.138;5.446;2024-03-23T03:51:57;18.92;;;5.05;;
78561;SDS011;68963;52.138;5.446;2024-03-23T03:54:23;16.58;;;4.45;;
78561;SDS011;68963;52.138;5.446;2024-03-23T03:56:48;16.88;;;4.55;;
78561;SDS011;68963;52.138;5.446;2024-03-23T03:59:14;15.50;;;4.53;;
78561;SDS011;68963;52.138;5.446;2024-03-23T04:01:40;28.35;;;5.13;;
78561;SDS011;68963;52.138;5.446;2024-03-23T04:04:06;18.40;;;4.55;;
78561;SDS011;68963;52.138;5.446;2024-03-23T04:06:32;16.88;;;4.53;;
78561;SDS011;68963;52.138;5.446;2024-03-23T04:08:58;17.17;;;4.63;;
78561;SDS011;68963;52.138;5.446;2024-03-23T04:11:24;20.05;;;4.53;;
78561;SDS011;68963;52.138;5.446;2024-03-23T04:13:50;16.27;;;4.60;;
78561;SDS011;68963;52.138;5.446;2024-03-23T04:16:26;17.27;;;4.63;;
78561;SDS011;68963;52.138;5.446;2024-03-23T04:18:55;17.50;;;4.60;;
78561;SDS011;68963;52.138;5.446;2024-03-23T04:21:21;15.35;;;5.13;;
78561;SDS011;68963;52.138;5.446;2024-03-23T04:23:48;18.08;;;4.88;;
78561;SDS011;68963;52.138;5.446;2024-03-23T04:26:14;13.88;;;4.95;;
78561;SDS011;68963;52.138;5.446;2024-03-23T04:28:40;15.65;;;4.85;;
78561;SDS011;68963;52.138;5.446;2024-03-23T04:31:06;15.85;;;4.70;;
78561;SDS011;68963;52.138;5.446;2024-03-23T04:33:32;14.88;;;5.22;;
78561;SDS011;68963;52.138;5.446;2024-03-23T04:35:57;16.58;;;5.05;;
78561;SDS011;68963;52.138;5.446;2024-03-23T04:38:23;15.50;;;5.18;;
78561;SDS011;68963;52.138;5.446;2024-03-23T04:40:58;15.48;;;5.00;;
78561;SDS011;68963;52.138;5.446;2024-03-23T04:43:27;14.57;;;4.97;;
78561;SDS011;68963;52.138;5.446;2024-03-23T04:45:53;15.27;;;4.43;;
78561;SDS011;68963;52.138;5.446;2024-03-23T04:48:20;15.82;;;5.55;;
78561;SDS011;68963;52.138;5.446;2024-03-23T04:50:47;20.02;;;4.80;;
78561;SDS011;68963;52.138;5.446;2024-03-23T04:53:14;13.95;;;4.80;;
78561;SDS011;68963;52.138;5.446;2024-03-23T04:55:41;15.00;;;4.63;;
78561;SDS011;68963;52.138;5.446;2024-03-23T04:58:07;17.85;;;4.18;;
78561;SDS011;68963;52.138;5.446;2024-03-23T05:00:33;14.20;;;4.00;;
78561;SDS011;68963;52.138;5.446;2024-03-23T05:02:59;11.30;;;3.78;;
78561;SDS011;68963;52.138;5.446;2024-03-23T05:05:24;14.30;;;3.92;;
78561;SDS011;68963;52.138;5.446;2024-03-23T05:07:50;12.50;;;3.83;;
78561;SDS011;68963;52.138;5.446;2024-03-23T05:10:15;15.02;;;3.60;;
78561;SDS011;68963;52.138;5.446;2024-03-23T05:12:41;11.95;;;3.70;;
78561;SDS011;68963;52.138;5.446;2024-03-23T05:15:07;15.45;;;3.85;;
78561;SDS011;68963;52.138;5.446;2024-03-23T05:17:33;12.02;;;3.58;;
78561;SDS011;68963;52.138;5.446;2024-03-23T05:19:59;15.48;;;3.20;;
78561;SDS011;68963;52.138;5.446;2024-03-23T05:22:24;11.30;;;2.88;;
78561;SDS011;68963;52.138;5.446;2024-03-23T05:24:50;9.70;;;2.80;;
78561;SDS011;68963;52.138;5.446;2024-03-23T05:27:16;8.70;;;3.10;;
78561;SDS011;68963;52.138;5.446;2024-03-23T05:29:41;11.45;;;2.85;;
78561;SDS011;68963;52.138;5.446;2024-03-23T05:32:07;10.77;;;2.92;;
78561;SDS011;68963;52.138;5.446;2024-03-23T05:34:33;11.82;;;3.00;;
78561;SDS011;68963;52.138;5.446;2024-03-23T05:36:58;11.90;;;3.15;;
78561;SDS011;68963;52.138;5.446;2024-03-23T05:39:24;9.80;;;2.95;;
78561;SDS011;68963;52.138;5.446;2024-03-23T05:41:50;10.43;;;2.75;;
78561;SDS011;68963;52.138;5.446;2024-03-23T05:44:16;8.50;;;2.40;;
78561;SDS011;68963;52.138;5.446;2024-03-23T05:46:42;11.77;;;3.10;;
78561;SDS011;68963;52.138;5.446;2024-03-23T05:49:08;11.50;;;2.67;;
78561;SDS011;68963;52.138;5.446;2024-03-23T05:51:33;9.23;;;2.50;;
78561;SDS011;68963;52.138;5.446;2024-03-23T05:53:59;10.13;;;2.45;;
78561;SDS011;68963;52.138;5.446;2024-03-23T05:56:24;11.35;;;2.47;;
78561;SDS011;68963;52.138;5.446;2024-03-23T05:58:51;11.48;;;2.53;;
78561;SDS011;68963;52.138;5.446;2024-03-23T06:01:17;8.98;;;2.15;;
78561;SDS011;68963;52.138;5.446;2024-03-23T06:03:43;13.00;;;2.35;;
78561;SDS011;68963;52.138;5.446;2024-03-23T06:06:09;13.45;;;2.38;;
78561;SDS011;68963;52.138;5.446;2024-03-23T06:08:37;12.80;;;2.80;;
78561;SDS011;68963;52.138;5.446;2024-03-23T06:11:03;9.75;;;2.10;;
78561;SDS011;68963;52.138;5.446;2024-03-23T06:13:31;10.20;;;2.25;;
78561;SDS011;68963;52.138;5.446;2024-03-23T06:15:57;10.73;;;2.28;;
78561;SDS011;68963;52.138;5.446;2024-03-23T06:18:24;10.77;;;2.25;;
78561;SDS011;68963;52.138;5.446;2024-03-23T06:20:49;10.68;;;2.20;;
78561;SDS011;68963;52.138;5.446;2024-03-23T06:23:15;11.05;;;2.00;;
78561;SDS011;68963;52.138;5.446;2024-03-23T06:25:42;9.10;;;1.95;;
78561;SDS011;68963;52.138;5.446;2024-03-23T06:28:08;8.52;;;1.88;;
78561;SDS011;68963;52.138;5.446;2024-03-23T06:30:34;9.40;;;1.73;;
78561;SDS011;68963;52.138;5.446;2024-03-23T06:32:59;9.98;;;1.70;;
78561;SDS011;68963;52.138;5.446;2024-03-23T06:35:25;11.98;;;2.22;;
78561;SDS011;68963;52.138;5.446;2024-03-23T06:37:50;9.93;;;2.00;;
78561;SDS011;68963;52.138;5.446;2024-03-23T06:40:16;12.68;;;2.03;;
78561;SDS011;68963;52.138;5.446;2024-03-23T06:42:41;10.57;;;2.03;;
78561;SDS011;68963;52.138;5.446;2024-03-23T06:45:07;8.43;;;1.80;;
78561;SDS011;68963;52.138;5.446;2024-03-23T06:47:33;8.95;;;1.80;;
78561;SDS011;68963;52.138;5.446;2024-03-23T06:49:59;6.93;;;1.83;;
78561;SDS011;68963;52.138;5.446;2024-03-23T06:52:28;11.98;;;2.00;;
78561;SDS011;68963;52.138;5.446;2024-03-23T06:54:54;6.80;;;1.58;;
78561;SDS011;68963;52.138;5.446;2024-03-23T06:57:20;8.93;;;1.70;;
78561;SDS011;68963;52.138;5.446;2024-03-23T06:59:45;8.63;;;1.83;;
78561;SDS011;68963;52.138;5.446;2024-03-23T07:02:11;6.93;;;1.58;;
78561;SDS011;68963;52.138;5.446;2024-03-23T07:04:36;7.80;;;1.48;;
78561;SDS011;68963;52.138;5.446;2024-03-23T07:07:04;10.30;;;2.10;;
78561;SDS011;68963;52.138;5.446;2024-03-23T07:09:30;11.57;;;1.85;;
78561;SDS011;68963;52.138;5.446;2024-03-23T07:11:56;10.95;;;2.22;;
78561;SDS011;68963;52.138;5.446;2024-03-23T07:14:23;11.77;;;2.22;;
78561;SDS011;68963;52.138;5.446;2024-03-23T07:16:49;9.38;;;1.88;;
78561;SDS011;68963;52.138;5.446;2024-03-23T07:19:15;11.32;;;2.28;;
78561;SDS011;68963;52.138;5.446;2024-03-23T07:21:42;10.52;;;2.20;;
78561;SDS011;68963;52.138;5.446;2024-03-23T07:24:10;9.95;;;2.08;;
78561;SDS011;68963;52.138;5.446;2024-03-23T07:26:37;11.13;;;2.35;;
78561;SDS011;68963;52.138;5.446;2024-03-23T07:29:05;11.23;;;2.47;;
78561;SDS011;68963;52.138;5.446;2024-03-23T07:31:32;11.38;;;2.72;;
78561;SDS011;68963;52.138;5.446;2024-03-23T07:33:57;10.23;;;2.53;;
78561;SDS011;68963;52.138;5.446;2024-03-23T07:36:23;9.05;;;2.50;;
78561;SDS011;68963;52.138;5.446;2024-03-23T07:38:49;12.88;;;2.15;;
78561;SDS011;68963;52.138;5.446;2024-03-23T07:41:15;9.43;;;2.30;;
78561;SDS011;68963;52.138;5.446;2024-03-23T07:43:44;10.73;;;2.67;;
78561;SDS011;68963;52.138;5.446;2024-03-23T07:46:10;10.68;;;2.63;;
78561;SDS011;68963;52.138;5.446;2024-03-23T07:48:37;13.27;;;2.50;;
78561;SDS011;68963;52.138;5.446;2024-03-23T07:51:04;12.15;;;2.60;;
78561;SDS011;68963;52.138;5.446;2024-03-23T07:53:31;8.98;;;2.15;;
78561;SDS011;68963;52.138;5.446;2024-03-23T07:55:58;10.25;;;2.03;;
78561;SDS011;68963;52.138;5.446;2024-03-23T07:58:28;12.07;;;2.25;;
78561;SDS011;68963;52.138;5.446;2024-03-23T08:01:02;9.57;;;1.92;;
78561;SDS011;68963;52.138;5.446;2024-03-23T08:03:29;9.70;;;2.20;;
78561;SDS011;68963;52.138;5.446;2024-03-23T08:05:55;8.13;;;1.90;;
78561;SDS011;68963;52.138;5.446;2024-03-23T08:08:20;7.88;;;1.90;;
78561;SDS011;68963;52.138;5.446;2024-03-23T08:13:18;9.00;;;2.03;;
78561;SDS011;68963;52.138;5.446;2024-03-23T08:15:44;10.05;;;1.90;;
78561;SDS011;68963;52.138;5.446;2024-03-23T08:18:13;9.48;;;2.00;;
78561;SDS011;68963;52.138;5.446;2024-03-23T08:20:40;8.73;;;1.65;;
78561;SDS011;68963;52.138;5.446;2024-03-23T08:23:06;8.73;;;2.00;;
78561;SDS011;68963;52.138;5.446;2024-03-23T08:25:33;7.95;;;1.70;;
78561;SDS011;68963;52.138;5.446;2024-03-23T08:27:59;8.73;;;1.80;;
78561;SDS011;68963;52.138;5.446;2024-03-23T08:30:25;10.27;;;2.05;;
78561;SDS011;68963;52.138;5.446;2024-03-23T08:32:51;9.52;;;1.90;;
78561;SDS011;68963;52.138;5.446;2024-03-23T08:35:16;8.82;;;1.85;;
78561;SDS011;68963;52.138;5.446;2024-03-23T08:37:42;7.13;;;1.42;;
78561;SDS011;68963;52.138;5.446;2024-03-23T08:40:08;9.63;;;1.85;;
78561;SDS011;68963;52.138;5.446;2024-03-23T08:42:34;8.48;;;1.73;;
78561;SDS011;68963;52.138;5.446;2024-03-23T08:45:00;7.68;;;1.50;;
78561;SDS011;68963;52.138;5.446;2024-03-23T08:47:26;6.55;;;1.45;;
78561;SDS011;68963;52.138;5.446;2024-03-23T08:49:51;8.45;;;1.50;;
78561;SDS011;68963;52.138;5.446;2024-03-23T08:52:17;7.85;;;1.73;;
78561;SDS011;68963;52.138;5.446;2024-03-23T08:54:43;10.02;;;1.77;;
78561;SDS011;68963;52.138;5.446;2024-03-23T08:57:08;8.32;;;1.60;;
78561;SDS011;68963;52.138;5.446;2024-03-23T08:59:34;12.30;;;1.65;;
78561;SDS011;68963;52.138;5.446;2024-03-23T09:02:00;10.57;;;1.92;;
78561;SDS011;68963;52.138;5.446;2024-03-23T09:04:25;8.88;;;1.38;;
78561;SDS011;68963;52.138;5.446;2024-03-23T09:06:51;6.35;;;1.30;;
78561;SDS011;68963;52.138;5.446;2024-03-23T09:09:17;8.32;;;1.35;;
78561;SDS011;68963;52.138;5.446;2024-03-23T09:11:43;9.27;;;1.25;;
78561;SDS011;68963;52.138;5.446;2024-03-23T09:14:08;10.40;;;1.50;;
78561;SDS011;68963;52.138;5.446;2024-03-23T09:16:34;4.60;;;1.13;;
78561;SDS011;68963;52.138;5.446;2024-03-23T09:19:00;5.18;;;1.00;;
78561;SDS011;68963;52.138;5.446;2024-03-23T09:21:26;8.05;;;1.38;;
78561;SDS011;68963;52.138;5.446;2024-03-23T09:23:51;7.95;;;1.08;;
78561;SDS011;68963;52.138;5.446;2024-03-23T09:26:17;7.45;;;1.10;;
78561;SDS011;68963;52.138;5.446;2024-03-23T09:28:42;10.40;;;1.30;;
78561;SDS011;68963;52.138;5.446;2024-03-23T09:31:08;8.07;;;1.15;;
78561;SDS011;68963;52.138;5.446;2024-03-23T09:33:35;8.20;;;1.42;;
78561;SDS011;68963;52.138;5.446;2024-03-23T09:36:04;5.50;;;1.10;;
78561;SDS011;68963;52.138;5.446;2024-03-23T09:38:30;6.25;;;1.13;;
78561;SDS011;68963;52.138;5.446;2024-03-23T09:40:57;6.97;;;1.40;;
78561;SDS011;68963;52.138;5.446;2024-03-23T09:43:24;8.35;;;1.48;;
78561;SDS011;68963;52.138;5.446;2024-03-23T09:45:50;10.23;;;1.65;;
78561;SDS011;68963;52.138;5.446;2024-03-23T09:48:16;7.10;;;1.33;;
78561;SDS011;68963;52.138;5.446;2024-03-23T09:50:43;6.93;;;1.20;;
78561;SDS011;68963;52.138;5.446;2024-03-23T09:53:10;5.10;;;1.00;;
78561;SDS011;68963;52.138;5.446;2024-03-23T09:55:37;5.72;;;1.00;;
78561;SDS011;68963;52.138;5.446;2024-03-23T09:58:04;7.60;;;1.00;;
78561;SDS011;68963;52.138;5.446;2024-03-23T10:00:34;5.95;;;1.30;;
78561;SDS011;68963;52.138;5.446;2024-03-23T10:03:00;7.75;;;1.58;;
78561;SDS011;68963;52.138;5.446;2024-03-23T10:05:30;10.32;;;1.80;;
78561;SDS011;68963;52.138;5.446;2024-03-23T10:10:43;9.18;;;1.65;;
78561;SDS011;68963;52.138;5.446;2024-03-23T10:13:09;8.65;;;1.55;;
78561;SDS011;68963;52.138;5.446;2024-03-23T10:15:35;8.82;;;1.80;;
78561;SDS011;68963;52.138;5.446;2024-03-23T10:18:17;8.93;;;1.60;;
78561;SDS011;68963;52.138;5.446;2024-03-23T10:20:47;9.85;;;1.50;;
78561;SDS011;68963;52.138;5.446;2024-03-23T10:23:17;7.78;;;1.50;;
78561;SDS011;68963;52.138;5.446;2024-03-23T10:25:43;9.50;;;1.75;;
78561;SDS011;68963;52.138;5.446;2024-03-23T10:28:09;10.60;;;1.20;;
78561;SDS011;68963;52.138;5.446;2024-03-23T10:30:35;9.48;;;1.60;;
78561;SDS011;68963;52.138;5.446;2024-03-23T10:33:07;8.40;;;1.45;;
78561;SDS011;68963;52.138;5.446;2024-03-23T10:35:33;9.50;;;1.40;;
78561;SDS011;68963;52.138;5.446;2024-03-23T10:37:59;10.02;;;1.50;;
78561;SDS011;68963;52.138;5.446;2024-03-23T10:40:25;7.82;;;1.50;;
78561;SDS011;68963;52.138;5.446;2024-03-23T10:42:52;10.20;;;1.60;;
78561;SDS011;68963;52.138;5.446;2024-03-23T10:45:23;7.30;;;1.25;;
78561;SDS011;68963;52.138;5.446;2024-03-23T10:47:48;5.93;;;1.10;;
78561;SDS011;68963;52.138;5.446;2024-03-23T10:50:14;7.72;;;1.40;;
78561;SDS011;68963;52.138;5.446;2024-03-23T10:52:40;8.35;;;1.30;;
78561;SDS011;68963;52.138;5.446;2024-03-23T10:55:10;11.07;;;1.35;;
78561;SDS011;68963;52.138;5.446;2024-03-23T10:57:41;5.63;;;1.10;;
78561;SDS011;68963;52.138;5.446;2024-03-23T11:00:19;7.85;;;1.33;;
78561;SDS011;68963;52.138;5.446;2024-03-23T11:02:50;7.85;;;1.23;;
78561;SDS011;68963;52.138;5.446;2024-03-23T11:07:54;7.38;;;1.30;;
78561;SDS011;68963;52.138;5.446;2024-03-23T11:10:24;7.13;;;1.27;;
78561;SDS011;68963;52.138;5.446;2024-03-23T11:12:52;6.38;;;1.48;;
78561;SDS011;68963;52.138;5.446;2024-03-23T11:15:18;9.25;;;1.40;;
78561;SDS011;68963;52.138;5.446;2024-03-23T11:18:01;9.60;;;1.45;;
78561;SDS011;68963;52.138;5.446;2024-03-23T11:20:33;5.55;;;1.10;;
78561;SDS011;68963;52.138;5.446;2024-03-23T11:23:00;10.07;;;1.33;;
78561;SDS011;68963;52.138;5.446;2024-03-23T11:25:26;8.57;;;1.63;;
78561;SDS011;68963;52.138;5.446;2024-03-23T11:27:55;11.15;;;1.70;;
78561;SDS011;68963;52.138;5.446;2024-03-23T11:30:36;6.72;;;1.30;;
78561;SDS011;68963;52.138;5.446;2024-03-23T11:33:03;5.55;;;1.05;;
78561;SDS011;68963;52.138;5.446;2024-03-23T11:38:09;10.32;;;1.60;;
78561;SDS011;68963;52.138;5.446;2024-03-23T11:40:35;8.35;;;1.20;;
78561;SDS011;68963;52.138;5.446;2024-03-23T11:43:03;7.90;;;1.65;;
78561;SDS011;68963;52.138;5.446;2024-03-23T11:45:37;9.05;;;1.40;;
78561;SDS011;68963;52.138;5.446;2024-03-23T11:50:33;9.70;;;1.25;;
78561;SDS011;68963;52.138;5.446;2024-03-23T11:53:11;6.65;;;1.33;;
78561;SDS011;68963;52.138;5.446;2024-03-23T11:55:51;7.65;;;1.15;;
78561;SDS011;68963;52.138;5.446;2024-03-23T11:58:18;8.82;;;1.25;;
78561;SDS011;68963;52.138;5.446;2024-03-23T12:00:52;6.65;;;1.15;;
78561;SDS011;68963;52.138;5.446;2024-03-23T12:03:20;8.55;;;1.38;;
78561;SDS011;68963;52.138;5.446;2024-03-23T12:05:47;7.15;;;1.33;;
78561;SDS011;68963;52.138;5.446;2024-03-23T12:11:06;9.07;;;1.70;;
78561;SDS011;68963;52.138;5.446;2024-03-23T12:16:13;5.47;;;1.02;;
78561;SDS011;68963;52.138;5.446;2024-03-23T12:18:46;7.45;;;1.25;;
78561;SDS011;68963;52.138;5.446;2024-03-23T12:21:13;9.05;;;1.30;;
78561;SDS011;68963;52.138;5.446;2024-03-23T12:23:39;7.25;;;1.30;;
78561;SDS011;68963;52.138;5.446;2024-03-23T12:26:05;10.48;;;1.45;;
78561;SDS011;68963;52.138;5.446;2024-03-23T12:28:31;8.10;;;1.23;;
78561;SDS011;68963;52.138;5.446;2024-03-23T12:30:57;7.25;;;1.20;;
78561;SDS011;68963;52.138;5.446;2024-03-23T12:33:23;5.95;;;1.00;;
78561;SDS011;68963;52.138;5.446;2024-03-23T12:35:52;8.60;;;1.10;;
78561;SDS011;68963;52.138;5.446;2024-03-23T12:38:19;9.45;;;1.40;;
78561;SDS011;68963;52.138;5.446;2024-03-23T12:40:48;10.35;;;1.30;;
78561;SDS011;68963;52.138;5.446;2024-03-23T12:43:14;6.78;;;1.33;;
78561;SDS011;68963;52.138;5.446;2024-03-23T12:45:40;7.40;;;1.33;;
78561;SDS011;68963;52.138;5.446;2024-03-23T12:48:06;7.65;;;1.05;;
78561;SDS011;68963;52.138;5.446;2024-03-23T12:50:32;6.68;;;1.00;;
78561;SDS011;68963;52.138;5.446;2024-03-23T12:52:58;7.88;;;1.20;;
78561;SDS011;68963;52.138;5.446;2024-03-23T12:55:23;6.93;;;1.23;;
78561;SDS011;68963;52.138;5.446;2024-03-23T12:57:49;8.73;;;1.30;;
78561;SDS011;68963;52.138;5.446;2024-03-23T13:00:15;7.35;;;1.00;;
78561;SDS011;68963;52.138;5.446;2024-03-23T13:05:09;5.65;;;1.20;;
78561;SDS011;68963;52.138;5.446;2024-03-23T13:07:35;9.13;;;1.33;;
78561;SDS011;68963;52.138;5.446;2024-03-23T13:10:00;5.88;;;1.30;;
78561;SDS011;68963;52.138;5.446;2024-03-23T13:12:26;5.22;;;1.00;;
78561;SDS011;68963;52.138;5.446;2024-03-23T13:14:52;7.65;;;1.10;;
78561;SDS011;68963;52.138;5.446;2024-03-23T13:17:17;6.18;;;1.17;;
78561;SDS011;68963;52.138;5.446;2024-03-23T13:19:43;6.55;;;1.40;;
78561;SDS011;68963;52.138;5.446;2024-03-23T13:22:09;7.65;;;1.25;;
78561;SDS011;68963;52.138;5.446;2024-03-23T13:24:37;8.30;;;1.10;;
78561;SDS011;68963;52.138;5.446;2024-03-23T13:27:03;7.00;;;1.20;;
78561;SDS011;68963;52.138;5.446;2024-03-23T13:29:31;4.53;;;0.90;;
78561;SDS011;68963;52.138;5.446;2024-03-23T13:31:57;5.57;;;0.60;;
78561;SDS011;68963;52.138;5.446;2024-03-23T13:34:22;4.47;;;0.60;;
78561;SDS011;68963;52.138;5.446;2024-03-23T13:36:48;2.45;;;0.45;;
78561;SDS011;68963;52.138;5.446;2024-03-23T13:39:14;1.77;;;0.40;;
78561;SDS011;68963;52.138;5.446;2024-03-23T13:41:40;3.08;;;0.30;;
78561;SDS011;68963;52.138;5.446;2024-03-23T13:44:07;2.33;;;0.40;;
78561;SDS011;68963;52.138;5.446;2024-03-23T13:46:38;2.47;;;0.30;;
78561;SDS011;68963;52.138;5.446;2024-03-23T13:49:04;2.70;;;0.50;;
78561;SDS011;68963;52.138;5.446;2024-03-23T13:51:31;4.22;;;0.80;;
78561;SDS011;68963;52.138;5.446;2024-03-23T13:53:57;5.47;;;0.70;;
78561;SDS011;68963;52.138;5.446;2024-03-23T13:56:26;5.90;;;1.10;;
78561;SDS011;68963;52.138;5.446;2024-03-23T13:58:55;6.97;;;0.90;;
78561;SDS011;68963;52.138;5.446;2024-03-23T14:01:23;6.07;;;1.35;;
78561;SDS011;68963;52.138;5.446;2024-03-23T14:03:49;7.25;;;1.00;;
78561;SDS011;68963;52.138;5.446;2024-03-23T14:06:15;5.72;;;1.10;;
78561;SDS011;68963;52.138;5.446;2024-03-23T14:08:40;6.85;;;0.93;;
78561;SDS011;68963;52.138;5.446;2024-03-23T14:11:07;6.68;;;1.00;;
78561;SDS011;68963;52.138;5.446;2024-03-23T14:13:35;7.22;;;1.10;;
78561;SDS011;68963;52.138;5.446;2024-03-23T14:16:01;8.80;;;1.40;;
78561;SDS011;68963;52.138;5.446;2024-03-23T14:18:27;5.40;;;1.00;;
78561;SDS011;68963;52.138;5.446;2024-03-23T14:20:56;6.43;;;1.17;;
78561;SDS011;68963;52.138;5.446;2024-03-23T14:23:27;8.07;;;1.20;;
78561;SDS011;68963;52.138;5.446;2024-03-23T14:25:58;6.78;;;1.33;;
78561;SDS011;68963;52.138;5.446;2024-03-23T14:28:24;6.72;;;1.38;;
78561;SDS011;68963;52.138;5.446;2024-03-23T14:30:50;6.85;;;1.10;;
78561;SDS011;68963;52.138;5.446;2024-03-23T14:33:16;8.93;;;1.23;;
78561;SDS011;68963;52.138;5.446;2024-03-23T14:35:42;7.07;;;0.93;;
78561;SDS011;68963;52.138;5.446;2024-03-23T14:38:08;6.95;;;0.95;;
78561;SDS011;68963;52.138;5.446;2024-03-23T14:40:33;9.25;;;1.33;;
78561;SDS011;68963;52.138;5.446;2024-03-23T14:42:59;4.57;;;0.70;;
78561;SDS011;68963;52.138;5.446;2024-03-23T14:45:25;5.40;;;1.00;;
78561;SDS011;68963;52.138;5.446;2024-03-23T14:47:51;7.80;;;1.20;;
78561;SDS011;68963;52.138;5.446;2024-03-23T14:50:17;7.97;;;1.30;;
78561;SDS011;68963;52.138;5.446;2024-03-23T14:52:46;7.35;;;1.13;;
78561;SDS011;68963;52.138;5.446;2024-03-23T14:55:11;4.82;;;0.90;;
78561;SDS011;68963;52.138;5.446;2024-03-23T14:57:37;6.40;;;0.90;;
78561;SDS011;68963;52.138;5.446;2024-03-23T15:00:07;8.63;;;1.20;;
78561;SDS011;68963;52.138;5.446;2024-03-23T15:02:35;7.38;;;1.10;;
78561;SDS011;68963;52.138;5.446;2024-03-23T15:05:04;5.85;;;1.00;;
78561;SDS011;68963;52.138;5.446;2024-03-23T15:07:35;5.55;;;0.90;;
78561;SDS011;68963;52.138;5.446;2024-03-23T15:10:04;5.65;;;1.00;;
78561;SDS011;68963;52.138;5.446;2024-03-23T15:12:30;8.27;;;1.00;;
78561;SDS011;68963;52.138;5.446;2024-03-23T15:14:58;5.07;;;1.10;;
78561;SDS011;68963;52.138;5.446;2024-03-23T15:17:25;7.70;;;1.20;;
78561;SDS011;68963;52.138;5.446;2024-03-23T15:19:50;6.25;;;1.02;;
78561;SDS011;68963;52.138;5.446;2024-03-23T15:22:16;4.88;;;0.90;;
78561;SDS011;68963;52.138;5.446;2024-03-23T15:24:41;8.50;;;1.30;;
78561;SDS011;68963;52.138;5.446;2024-03-23T15:27:07;5.90;;;1.10;;
78561;SDS011;68963;52.138;5.446;2024-03-23T15:29:34;7.80;;;1.00;;
78561;SDS011;68963;52.138;5.446;2024-03-23T15:32:01;9.23;;;1.10;;
78561;SDS011;68963;52.138;5.446;2024-03-23T15:34:28;6.20;;;1.00;;
78561;SDS011;68963;52.138;5.446;2024-03-23T15:36:54;6.32;;;0.98;;
78561;SDS011;68963;52.138;5.446;2024-03-23T15:39:20;4.63;;;1.00;;
78561;SDS011;68963;52.138;5.446;2024-03-23T15:41:47;5.68;;;0.93;;
78561;SDS011;68963;52.138;5.446;2024-03-23T15:44:13;5.28;;;1.00;;
78561;SDS011;68963;52.138;5.446;2024-03-23T15:46:39;6.60;;;0.85;;
78561;SDS011;68963;52.138;5.446;2024-03-23T15:49:05;4.05;;;0.82;;
78561;SDS011;68963;52.138;5.446;2024-03-23T15:51:31;7.30;;;1.00;;